sensor_id;sensor_type;location;lat;lon;timestamp;P1;durP1;ratioP1;P2;durP2;ratioP2
14171;SDS011;7165;52.388;4.928;2022-09-21T00:01:22;4.40;;;3.33;;
14171;SDS011;7165;52.388;4.928;2022-09-21T00:03:51;5.53;;;3.42;;
14171;SDS011;7165;52.388;4.928;2022-09-21T00:06:19;5.95;;;3.38;;
14171;SDS011;7165;52.388;4.928;2022-09-21T00:08:48;4.03;;;3.17;;
14171;SDS011;7165;52.388;4.928;2022-09-21T00:11:16;4.07;;;3.33;;
14171;SDS011;7165;52.388;4.928;2022-09-21T00:13:44;4.18;;;3.33;;
14171;SDS011;7165;52.388;4.928;2022-09-21T00:16:12;3.67;;;3.20;;
14171;SDS011;7165;52.388;4.928;2022-09-21T00:18:40;4.43;;;2.97;;
14171;SDS011;7165;52.388;4.928;2022-09-21T00:21:08;6.30;;;3.50;;
14171;SDS011;7165;52.388;4.928;2022-09-21T00:23:36;3.15;;;2.85;;
14171;SDS011;7165;52.388;4.928;2022-09-21T00:26:05;3.22;;;2.88;;
14171;SDS011;7165;52.388;4.928;2022-09-21T00:28:32;4.72;;;2.55;;
14171;SDS011;7165;52.388;4.928;2022-09-21T00:31:00;3.28;;;2.97;;
14171;SDS011;7165;52.388;4.928;2022-09-21T00:33:27;4.18;;;2.80;;
14171;SDS011;7165;52.388;4.928;2022-09-21T00:35:54;3.38;;;2.97;;
14171;SDS011;7165;52.388;4.928;2022-09-21T00:38:21;5.03;;;2.60;;
14171;SDS011;7165;52.388;4.928;2022-09-21T00:40:48;3.13;;;2.80;;
14171;SDS011;7165;52.388;4.928;2022-09-21T00:43:16;3.22;;;2.90;;
14171;SDS011;7165;52.388;4.928;2022-09-21T00:45:43;3.95;;;2.75;;
14171;SDS011;7165;52.388;4.928;2022-09-21T00:48:13;3.45;;;3.03;;
14171;SDS011;7165;52.388;4.928;2022-09-21T00:50:41;4.43;;;3.15;;
14171;SDS011;7165;52.388;4.928;2022-09-21T00:53:11;4.22;;;2.60;;
14171;SDS011;7165;52.388;4.928;2022-09-21T00:55:40;6.47;;;2.85;;
14171;SDS011;7165;52.388;4.928;2022-09-21T00:58:12;3.08;;;2.50;;
14171;SDS011;7165;52.388;4.928;2022-09-21T01:00:43;4.70;;;2.78;;
14171;SDS011;7165;52.388;4.928;2022-09-21T01:03:11;3.15;;;2.55;;
14171;SDS011;7165;52.388;4.928;2022-09-21T01:05:38;2.80;;;2.47;;
14171;SDS011;7165;52.388;4.928;2022-09-21T01:08:05;3.08;;;2.58;;
14171;SDS011;7165;52.388;4.928;2022-09-21T01:10:37;6.18;;;3.63;;
14171;SDS011;7165;52.388;4.928;2022-09-21T01:13:12;3.83;;;3.08;;
14171;SDS011;7165;52.388;4.928;2022-09-21T01:15:49;5.78;;;3.78;;
14171;SDS011;7165;52.388;4.928;2022-09-21T01:18:26;4.05;;;2.55;;
14171;SDS011;7165;52.388;4.928;2022-09-21T01:24:00;4.28;;;2.60;;
14171;SDS011;7165;52.388;4.928;2022-09-21T01:29:54;3.17;;;2.90;;
14171;SDS011;7165;52.388;4.928;2022-09-21T01:32:27;3.80;;;2.80;;
14171;SDS011;7165;52.388;4.928;2022-09-21T01:34:58;5.38;;;2.50;;
14171;SDS011;7165;52.388;4.928;2022-09-21T01:37:29;5.50;;;2.70;;
14171;SDS011;7165;52.388;4.928;2022-09-21T01:40:01;2.40;;;2.22;;
14171;SDS011;7165;52.388;4.928;2022-09-21T01:42:35;3.65;;;2.55;;
14171;SDS011;7165;52.388;4.928;2022-09-21T01:45:06;5.63;;;3.30;;
14171;SDS011;7165;52.388;4.928;2022-09-21T01:47:36;4.18;;;2.70;;
14171;SDS011;7165;52.388;4.928;2022-09-21T01:50:06;2.75;;;2.50;;
14171;SDS011;7165;52.388;4.928;2022-09-21T01:52:37;3.30;;;2.60;;
14171;SDS011;7165;52.388;4.928;2022-09-21T01:55:08;3.70;;;2.38;;
14171;SDS011;7165;52.388;4.928;2022-09-21T01:57:39;6.38;;;2.92;;
14171;SDS011;7165;52.388;4.928;2022-09-21T02:00:11;4.60;;;2.80;;
14171;SDS011;7165;52.388;4.928;2022-09-21T02:02:42;3.63;;;2.55;;
14171;SDS011;7165;52.388;4.928;2022-09-21T02:05:14;4.28;;;2.47;;
14171;SDS011;7165;52.388;4.928;2022-09-21T02:07:44;3.22;;;2.40;;
14171;SDS011;7165;52.388;4.928;2022-09-21T02:10:13;2.67;;;2.40;;
14171;SDS011;7165;52.388;4.928;2022-09-21T02:12:45;4.63;;;2.70;;
14171;SDS011;7165;52.388;4.928;2022-09-21T02:15:14;4.57;;;2.30;;
14171;SDS011;7165;52.388;4.928;2022-09-21T02:17:43;6.97;;;3.22;;
14171;SDS011;7165;52.388;4.928;2022-09-21T02:20:22;3.40;;;3.10;;
14171;SDS011;7165;52.388;4.928;2022-09-21T02:22:58;6.45;;;2.50;;
14171;SDS011;7165;52.388;4.928;2022-09-21T02:25:33;4.03;;;2.40;;
14171;SDS011;7165;52.388;4.928;2022-09-21T02:28:07;5.25;;;3.00;;
14171;SDS011;7165;52.388;4.928;2022-09-21T02:30:42;3.90;;;2.92;;
14171;SDS011;7165;52.388;4.928;2022-09-21T02:33:18;4.65;;;3.08;;
14171;SDS011;7165;52.388;4.928;2022-09-21T02:35:52;4.72;;;3.20;;
14171;SDS011;7165;52.388;4.928;2022-09-21T02:38:27;4.07;;;2.40;;
14171;SDS011;7165;52.388;4.928;2022-09-21T02:41:00;4.53;;;2.42;;
14171;SDS011;7165;52.388;4.928;2022-09-21T02:43:33;3.42;;;2.47;;
14171;SDS011;7165;52.388;4.928;2022-09-21T02:46:06;3.10;;;2.22;;
14171;SDS011;7165;52.388;4.928;2022-09-21T02:48:37;3.25;;;2.70;;
14171;SDS011;7165;52.388;4.928;2022-09-21T02:51:08;4.13;;;3.20;;
14171;SDS011;7165;52.388;4.928;2022-09-21T02:53:39;3.85;;;2.45;;
14171;SDS011;7165;52.388;4.928;2022-09-21T02:56:07;6.28;;;2.92;;
14171;SDS011;7165;52.388;4.928;2022-09-21T02:58:37;4.82;;;2.42;;
14171;SDS011;7165;52.388;4.928;2022-09-21T03:01:08;2.63;;;2.10;;
14171;SDS011;7165;52.388;4.928;2022-09-21T03:03:37;4.28;;;2.17;;
14171;SDS011;7165;52.388;4.928;2022-09-21T03:06:04;3.53;;;2.17;;
14171;SDS011;7165;52.388;4.928;2022-09-21T03:08:31;3.17;;;2.38;;
14171;SDS011;7165;52.388;4.928;2022-09-21T03:10:58;3.75;;;2.00;;
14171;SDS011;7165;52.388;4.928;2022-09-21T03:13:25;5.65;;;2.28;;
14171;SDS011;7165;52.388;4.928;2022-09-21T03:15:57;4.85;;;2.55;;
14171;SDS011;7165;52.388;4.928;2022-09-21T03:18:26;4.13;;;2.67;;
14171;SDS011;7165;52.388;4.928;2022-09-21T03:20:52;2.67;;;2.45;;
14171;SDS011;7165;52.388;4.928;2022-09-21T03:23:19;2.35;;;2.15;;
14171;SDS011;7165;52.388;4.928;2022-09-21T03:25:46;6.85;;;2.60;;
14171;SDS011;7165;52.388;4.928;2022-09-21T03:28:13;3.13;;;2.67;;
14171;SDS011;7165;52.388;4.928;2022-09-21T03:30:40;2.35;;;2.08;;
14171;SDS011;7165;52.388;4.928;2022-09-21T03:33:08;3.40;;;2.47;;
14171;SDS011;7165;52.388;4.928;2022-09-21T03:35:38;3.75;;;3.10;;
14171;SDS011;7165;52.388;4.928;2022-09-21T03:38:05;3.05;;;2.22;;
14171;SDS011;7165;52.388;4.928;2022-09-21T03:40:32;1.95;;;1.85;;
14171;SDS011;7165;52.388;4.928;2022-09-21T03:42:59;3.67;;;2.40;;
14171;SDS011;7165;52.388;4.928;2022-09-21T03:45:25;2.60;;;2.40;;
14171;SDS011;7165;52.388;4.928;2022-09-21T03:47:53;2.30;;;2.15;;
14171;SDS011;7165;52.388;4.928;2022-09-21T03:50:20;2.42;;;2.13;;
14171;SDS011;7165;52.388;4.928;2022-09-21T03:52:48;4.28;;;2.50;;
14171;SDS011;7165;52.388;4.928;2022-09-21T03:55:15;2.45;;;2.25;;
14171;SDS011;7165;52.388;4.928;2022-09-21T03:57:42;4.55;;;2.85;;
14171;SDS011;7165;52.388;4.928;2022-09-21T04:00:09;2.75;;;2.55;;
14171;SDS011;7165;52.388;4.928;2022-09-21T04:02:37;3.42;;;2.40;;
14171;SDS011;7165;52.388;4.928;2022-09-21T04:05:05;4.45;;;2.67;;
14171;SDS011;7165;52.388;4.928;2022-09-21T04:07:32;4.10;;;2.97;;
14171;SDS011;7165;52.388;4.928;2022-09-21T04:10:01;2.80;;;2.60;;
14171;SDS011;7165;52.388;4.928;2022-09-21T04:12:28;2.60;;;2.40;;
14171;SDS011;7165;52.388;4.928;2022-09-21T04:14:56;2.78;;;2.42;;
14171;SDS011;7165;52.388;4.928;2022-09-21T04:17:22;4.88;;;2.72;;
14171;SDS011;7165;52.388;4.928;2022-09-21T04:19:49;2.90;;;2.65;;
14171;SDS011;7165;52.388;4.928;2022-09-21T04:22:16;2.40;;;2.15;;
14171;SDS011;7165;52.388;4.928;2022-09-21T04:24:43;3.92;;;2.67;;
14171;SDS011;7165;52.388;4.928;2022-09-21T04:27:11;3.42;;;2.40;;
14171;SDS011;7165;52.388;4.928;2022-09-21T04:29:38;2.85;;;2.38;;
14171;SDS011;7165;52.388;4.928;2022-09-21T04:32:05;2.58;;;2.38;;
14171;SDS011;7165;52.388;4.928;2022-09-21T04:34:32;2.45;;;2.35;;
14171;SDS011;7165;52.388;4.928;2022-09-21T04:36:59;3.90;;;3.15;;
14171;SDS011;7165;52.388;4.928;2022-09-21T04:39:25;5.15;;;3.15;;
14171;SDS011;7165;52.388;4.928;2022-09-21T04:41:52;4.90;;;2.97;;
14171;SDS011;7165;52.388;4.928;2022-09-21T04:44:20;9.25;;;2.83;;
14171;SDS011;7165;52.388;4.928;2022-09-21T04:46:47;5.13;;;2.90;;
14171;SDS011;7165;52.388;4.928;2022-09-21T04:49:14;3.47;;;3.17;;
14171;SDS011;7165;52.388;4.928;2022-09-21T04:51:40;3.33;;;2.92;;
14171;SDS011;7165;52.388;4.928;2022-09-21T04:54:07;3.40;;;2.72;;
14171;SDS011;7165;52.388;4.928;2022-09-21T04:56:34;3.90;;;2.70;;
14171;SDS011;7165;52.388;4.928;2022-09-21T04:59:01;4.53;;;3.15;;
14171;SDS011;7165;52.388;4.928;2022-09-21T05:01:30;3.08;;;2.88;;
14171;SDS011;7165;52.388;4.928;2022-09-21T05:03:56;3.92;;;3.00;;
14171;SDS011;7165;52.388;4.928;2022-09-21T05:06:25;3.60;;;2.78;;
14171;SDS011;7165;52.388;4.928;2022-09-21T05:08:52;3.28;;;3.00;;
14171;SDS011;7165;52.388;4.928;2022-09-21T05:11:36;4.13;;;3.50;;
14171;SDS011;7165;52.388;4.928;2022-09-21T05:14:04;4.43;;;3.20;;
14171;SDS011;7165;52.388;4.928;2022-09-21T05:16:32;4.40;;;3.00;;
14171;SDS011;7165;52.388;4.928;2022-09-21T05:18:59;4.72;;;3.10;;
14171;SDS011;7165;52.388;4.928;2022-09-21T05:21:26;4.85;;;3.00;;
14171;SDS011;7165;52.388;4.928;2022-09-21T05:23:54;3.70;;;3.40;;
14171;SDS011;7165;52.388;4.928;2022-09-21T05:26:21;3.50;;;3.20;;
14171;SDS011;7165;52.388;4.928;2022-09-21T05:28:48;4.25;;;3.88;;
14171;SDS011;7165;52.388;4.928;2022-09-21T05:31:21;5.85;;;4.68;;
14171;SDS011;7165;52.388;4.928;2022-09-21T05:34:02;5.07;;;3.83;;
14171;SDS011;7165;52.388;4.928;2022-09-21T05:36:35;3.67;;;3.28;;
14171;SDS011;7165;52.388;4.928;2022-09-21T05:39:09;5.20;;;3.22;;
14171;SDS011;7165;52.388;4.928;2022-09-21T05:41:36;5.32;;;3.72;;
14171;SDS011;7165;52.388;4.928;2022-09-21T05:44:04;3.85;;;3.50;;
14171;SDS011;7165;52.388;4.928;2022-09-21T05:46:33;5.53;;;3.42;;
14171;SDS011;7165;52.388;4.928;2022-09-21T05:49:06;3.83;;;3.30;;
14171;SDS011;7165;52.388;4.928;2022-09-21T05:51:41;4.80;;;3.20;;
14171;SDS011;7165;52.388;4.928;2022-09-21T05:54:21;4.25;;;3.85;;
14171;SDS011;7165;52.388;4.928;2022-09-21T05:56:59;3.60;;;3.33;;
14171;SDS011;7165;52.388;4.928;2022-09-21T05:59:46;6.22;;;3.60;;
14171;SDS011;7165;52.388;4.928;2022-09-21T06:05:36;5.25;;;3.85;;
14171;SDS011;7165;52.388;4.928;2022-09-21T06:08:04;9.57;;;4.30;;
14171;SDS011;7165;52.388;4.928;2022-09-21T06:10:32;5.60;;;3.97;;
14171;SDS011;7165;52.388;4.928;2022-09-21T06:12:59;4.07;;;3.42;;
14171;SDS011;7165;52.388;4.928;2022-09-21T06:15:26;4.45;;;4.10;;
14171;SDS011;7165;52.388;4.928;2022-09-21T06:17:53;4.65;;;3.83;;
14171;SDS011;7165;52.388;4.928;2022-09-21T06:20:20;8.32;;;5.05;;
14171;SDS011;7165;52.388;4.928;2022-09-21T06:22:48;6.43;;;4.00;;
14171;SDS011;7165;52.388;4.928;2022-09-21T06:25:15;5.53;;;3.60;;
14171;SDS011;7165;52.388;4.928;2022-09-21T06:27:43;5.63;;;4.05;;
14171;SDS011;7165;52.388;4.928;2022-09-21T06:30:11;5.63;;;3.60;;
14171;SDS011;7165;52.388;4.928;2022-09-21T06:32:37;4.20;;;3.53;;
14171;SDS011;7165;52.388;4.928;2022-09-21T06:35:04;3.72;;;3.42;;
14171;SDS011;7165;52.388;4.928;2022-09-21T06:37:31;4.35;;;3.40;;
14171;SDS011;7165;52.388;4.928;2022-09-21T06:40:00;4.43;;;3.65;;
14171;SDS011;7165;52.388;4.928;2022-09-21T06:42:27;7.18;;;4.10;;
14171;SDS011;7165;52.388;4.928;2022-09-21T06:44:53;3.55;;;3.30;;
14171;SDS011;7165;52.388;4.928;2022-09-21T06:47:20;3.85;;;3.47;;
14171;SDS011;7165;52.388;4.928;2022-09-21T06:49:47;3.97;;;3.40;;
14171;SDS011;7165;52.388;4.928;2022-09-21T06:52:13;3.75;;;3.35;;
14171;SDS011;7165;52.388;4.928;2022-09-21T06:54:40;3.85;;;3.55;;
14171;SDS011;7165;52.388;4.928;2022-09-21T06:57:08;5.60;;;4.53;;
14171;SDS011;7165;52.388;4.928;2022-09-21T06:59:35;8.40;;;4.72;;
14171;SDS011;7165;52.388;4.928;2022-09-21T07:02:02;5.20;;;4.43;;
14171;SDS011;7165;52.388;4.928;2022-09-21T07:04:29;5.18;;;4.57;;
14171;SDS011;7165;52.388;4.928;2022-09-21T07:06:56;8.95;;;5.93;;
14171;SDS011;7165;52.388;4.928;2022-09-21T07:09:23;8.38;;;5.60;;
14171;SDS011;7165;52.388;4.928;2022-09-21T07:11:49;7.38;;;5.70;;
14171;SDS011;7165;52.388;4.928;2022-09-21T07:14:17;6.30;;;5.43;;
14171;SDS011;7165;52.388;4.928;2022-09-21T07:16:44;7.28;;;5.88;;
14171;SDS011;7165;52.388;4.928;2022-09-21T07:19:11;6.25;;;5.15;;
14171;SDS011;7165;52.388;4.928;2022-09-21T07:21:38;7.95;;;5.97;;
14171;SDS011;7165;52.388;4.928;2022-09-21T07:24:05;9.70;;;5.90;;
14171;SDS011;7165;52.388;4.928;2022-09-21T07:26:31;7.38;;;5.68;;
14171;SDS011;7165;52.388;4.928;2022-09-21T07:28:58;7.68;;;5.50;;
14171;SDS011;7165;52.388;4.928;2022-09-21T07:31:26;6.90;;;4.72;;
14171;SDS011;7165;52.388;4.928;2022-09-21T07:33:55;7.28;;;4.93;;
14171;SDS011;7165;52.388;4.928;2022-09-21T07:36:23;6.82;;;4.78;;
14171;SDS011;7165;52.388;4.928;2022-09-21T07:38:49;11.85;;;5.32;;
14171;SDS011;7165;52.388;4.928;2022-09-21T07:41:17;6.63;;;4.57;;
14171;SDS011;7165;52.388;4.928;2022-09-21T07:43:44;8.85;;;4.95;;
14171;SDS011;7165;52.388;4.928;2022-09-21T07:46:11;6.30;;;4.63;;
14171;SDS011;7165;52.388;4.928;2022-09-21T07:48:41;9.50;;;4.80;;
14171;SDS011;7165;52.388;4.928;2022-09-21T07:51:08;5.00;;;3.40;;
14171;SDS011;7165;52.388;4.928;2022-09-21T07:53:37;5.45;;;3.72;;
14171;SDS011;7165;52.388;4.928;2022-09-21T07:56:05;5.35;;;3.47;;
14171;SDS011;7165;52.388;4.928;2022-09-21T07:58:33;8.48;;;3.72;;
14171;SDS011;7165;52.388;4.928;2022-09-21T08:01:18;5.47;;;3.53;;
14171;SDS011;7165;52.388;4.928;2022-09-21T08:03:48;4.88;;;3.55;;
14171;SDS011;7165;52.388;4.928;2022-09-21T08:06:15;4.80;;;3.22;;
14171;SDS011;7165;52.388;4.928;2022-09-21T08:08:43;5.32;;;3.35;;
14171;SDS011;7165;52.388;4.928;2022-09-21T08:11:12;4.88;;;3.08;;
14171;SDS011;7165;52.388;4.928;2022-09-21T08:13:39;4.47;;;2.70;;
14171;SDS011;7165;52.388;4.928;2022-09-21T08:16:06;3.80;;;2.47;;
14171;SDS011;7165;52.388;4.928;2022-09-21T08:18:35;11.75;;;2.70;;
14171;SDS011;7165;52.388;4.928;2022-09-21T08:21:04;3.75;;;2.40;;
14171;SDS011;7165;52.388;4.928;2022-09-21T08:23:32;3.53;;;2.00;;
14171;SDS011;7165;52.388;4.928;2022-09-21T08:26:04;6.20;;;2.67;;
14171;SDS011;7165;52.388;4.928;2022-09-21T08:28:32;3.75;;;2.05;;
14171;SDS011;7165;52.388;4.928;2022-09-21T08:31:00;4.05;;;2.78;;
14171;SDS011;7165;52.388;4.928;2022-09-21T08:33:27;6.95;;;3.10;;
14171;SDS011;7165;52.388;4.928;2022-09-21T08:35:54;8.85;;;2.92;;
14171;SDS011;7165;52.388;4.928;2022-09-21T08:38:23;3.97;;;2.22;;
14171;SDS011;7165;52.388;4.928;2022-09-21T08:40:51;4.50;;;2.60;;
14171;SDS011;7165;52.388;4.928;2022-09-21T08:43:21;5.70;;;2.20;;
14171;SDS011;7165;52.388;4.928;2022-09-21T08:45:55;4.65;;;2.00;;
14171;SDS011;7165;52.388;4.928;2022-09-21T08:51:40;4.65;;;1.83;;
14171;SDS011;7165;52.388;4.928;2022-09-21T08:54:15;3.88;;;1.90;;
14171;SDS011;7165;52.388;4.928;2022-09-21T08:56:48;1.60;;;1.50;;
14171;SDS011;7165;52.388;4.928;2022-09-21T08:59:15;2.83;;;1.60;;
14171;SDS011;7165;52.388;4.928;2022-09-21T09:01:49;2.10;;;1.50;;
14171;SDS011;7165;52.388;4.928;2022-09-21T09:04:27;3.72;;;1.60;;
14171;SDS011;7165;52.388;4.928;2022-09-21T09:07:10;2.70;;;1.80;;
14171;SDS011;7165;52.388;4.928;2022-09-21T09:09:53;7.22;;;1.98;;
14171;SDS011;7165;52.388;4.928;2022-09-21T09:12:36;3.67;;;1.63;;
14171;SDS011;7165;52.388;4.928;2022-09-21T09:15:14;6.60;;;1.70;;
14171;SDS011;7165;52.388;4.928;2022-09-21T09:17:51;3.00;;;1.73;;
14171;SDS011;7165;52.388;4.928;2022-09-21T09:20:25;2.00;;;1.60;;
14171;SDS011;7165;52.388;4.928;2022-09-21T09:22:58;3.60;;;1.52;;
14171;SDS011;7165;52.388;4.928;2022-09-21T09:25:33;5.88;;;1.77;;
14171;SDS011;7165;52.388;4.928;2022-09-21T09:28:09;4.22;;;1.70;;
14171;SDS011;7165;52.388;4.928;2022-09-21T09:30:47;3.58;;;1.55;;
14171;SDS011;7165;52.388;4.928;2022-09-21T09:33:22;2.97;;;1.45;;
14171;SDS011;7165;52.388;4.928;2022-09-21T09:35:54;2.17;;;1.98;;
14171;SDS011;7165;52.388;4.928;2022-09-21T09:38:26;4.20;;;2.00;;
14171;SDS011;7165;52.388;4.928;2022-09-21T09:41:05;2.30;;;1.35;;
14171;SDS011;7165;52.388;4.928;2022-09-21T09:43:50;3.13;;;1.60;;
14171;SDS011;7165;52.388;4.928;2022-09-21T09:46:26;3.97;;;2.00;;
14171;SDS011;7165;52.388;4.928;2022-09-21T09:49:03;4.13;;;1.48;;
14171;SDS011;7165;52.388;4.928;2022-09-21T09:51:41;6.35;;;1.90;;
14171;SDS011;7165;52.388;4.928;2022-09-21T09:54:11;3.95;;;1.50;;
14171;SDS011;7165;52.388;4.928;2022-09-21T09:56:41;3.45;;;2.15;;
14171;SDS011;7165;52.388;4.928;2022-09-21T09:59:09;3.40;;;1.40;;
14171;SDS011;7165;52.388;4.928;2022-09-21T10:01:42;3.92;;;1.88;;
14171;SDS011;7165;52.388;4.928;2022-09-21T10:04:11;2.67;;;1.60;;
14171;SDS011;7165;52.388;4.928;2022-09-21T10:06:39;3.30;;;1.92;;
14171;SDS011;7165;52.388;4.928;2022-09-21T10:09:17;6.32;;;2.08;;
14171;SDS011;7165;52.388;4.928;2022-09-21T10:11:49;2.60;;;1.65;;
14171;SDS011;7165;52.388;4.928;2022-09-21T10:14:18;3.47;;;1.50;;
14171;SDS011;7165;52.388;4.928;2022-09-21T10:16:47;2.20;;;1.35;;
14171;SDS011;7165;52.388;4.928;2022-09-21T10:19:17;2.38;;;1.17;;
14171;SDS011;7165;52.388;4.928;2022-09-21T10:21:47;12.43;;;1.63;;
14171;SDS011;7165;52.388;4.928;2022-09-21T10:24:21;2.33;;;1.80;;
14171;SDS011;7165;52.388;4.928;2022-09-21T10:29:30;2.80;;;1.50;;
14171;SDS011;7165;52.388;4.928;2022-09-21T10:32:04;1.70;;;1.48;;
14171;SDS011;7165;52.388;4.928;2022-09-21T10:34:58;1.90;;;1.40;;
14171;SDS011;7165;52.388;4.928;2022-09-21T10:37:28;7.05;;;3.97;;
14171;SDS011;7165;52.388;4.928;2022-09-21T10:39:58;1.45;;;1.35;;
14171;SDS011;7165;52.388;4.928;2022-09-21T10:42:27;3.80;;;1.45;;
14171;SDS011;7165;52.388;4.928;2022-09-21T10:45:03;3.75;;;1.42;;
14171;SDS011;7165;52.388;4.928;2022-09-21T10:47:39;3.33;;;1.55;;
14171;SDS011;7165;52.388;4.928;2022-09-21T10:50:19;2.50;;;1.52;;
14171;SDS011;7165;52.388;4.928;2022-09-21T10:52:48;2.60;;;1.58;;
14171;SDS011;7165;52.388;4.928;2022-09-21T10:55:21;1.60;;;1.30;;
14171;SDS011;7165;52.388;4.928;2022-09-21T10:57:50;3.38;;;1.55;;
14171;SDS011;7165;52.388;4.928;2022-09-21T11:00:32;3.45;;;2.00;;
14171;SDS011;7165;52.388;4.928;2022-09-21T11:05:53;2.08;;;1.40;;
14171;SDS011;7165;52.388;4.928;2022-09-21T11:08:22;5.68;;;1.65;;
14171;SDS011;7165;52.388;4.928;2022-09-21T11:11:01;4.32;;;2.00;;
14171;SDS011;7165;52.388;4.928;2022-09-21T11:13:37;3.00;;;1.40;;
14171;SDS011;7165;52.388;4.928;2022-09-21T11:16:12;2.80;;;1.67;;
14171;SDS011;7165;52.388;4.928;2022-09-21T11:18:45;3.90;;;1.45;;
14171;SDS011;7165;52.388;4.928;2022-09-21T11:21:25;2.83;;;1.40;;
14171;SDS011;7165;52.388;4.928;2022-09-21T11:24:01;5.05;;;1.35;;
14171;SDS011;7165;52.388;4.928;2022-09-21T11:26:47;5.72;;;3.42;;
14171;SDS011;7165;52.388;4.928;2022-09-21T11:29:20;4.38;;;2.58;;
14171;SDS011;7165;52.388;4.928;2022-09-21T11:31:56;6.05;;;2.10;;
14171;SDS011;7165;52.388;4.928;2022-09-21T11:34:42;8.73;;;5.38;;
14171;SDS011;7165;52.388;4.928;2022-09-21T11:37:25;7.75;;;3.22;;
14171;SDS011;7165;52.388;4.928;2022-09-21T11:40:03;4.10;;;1.83;;
14171;SDS011;7165;52.388;4.928;2022-09-21T11:42:47;4.32;;;2.25;;
14171;SDS011;7165;52.388;4.928;2022-09-21T11:45:35;6.93;;;2.00;;
14171;SDS011;7165;52.388;4.928;2022-09-21T11:48:14;3.47;;;1.30;;
14171;SDS011;7165;52.388;4.928;2022-09-21T11:50:51;4.38;;;2.28;;
14171;SDS011;7165;52.388;4.928;2022-09-21T11:53:28;3.08;;;2.10;;
14171;SDS011;7165;52.388;4.928;2022-09-21T11:56:08;3.28;;;1.73;;
14171;SDS011;7165;52.388;4.928;2022-09-21T11:58:58;10.25;;;7.55;;
14171;SDS011;7165;52.388;4.928;2022-09-21T12:01:41;9.48;;;2.80;;
14171;SDS011;7165;52.388;4.928;2022-09-21T12:04:26;3.17;;;1.40;;
14171;SDS011;7165;52.388;4.928;2022-09-21T12:07:06;3.00;;;1.92;;
14171;SDS011;7165;52.388;4.928;2022-09-21T12:09:50;2.17;;;1.30;;
14171;SDS011;7165;52.388;4.928;2022-09-21T12:12:34;2.75;;;1.30;;
14171;SDS011;7165;52.388;4.928;2022-09-21T12:15:08;3.45;;;1.40;;
14171;SDS011;7165;52.388;4.928;2022-09-21T12:17:43;3.15;;;2.85;;
14171;SDS011;7165;52.388;4.928;2022-09-21T12:20:19;2.58;;;1.20;;
14171;SDS011;7165;52.388;4.928;2022-09-21T12:22:53;2.42;;;1.38;;
14171;SDS011;7165;52.388;4.928;2022-09-21T12:25:26;3.90;;;1.20;;
14171;SDS011;7165;52.388;4.928;2022-09-21T12:27:57;4.22;;;1.70;;
14171;SDS011;7165;52.388;4.928;2022-09-21T12:30:28;1.15;;;1.08;;
14171;SDS011;7165;52.388;4.928;2022-09-21T12:32:58;3.75;;;1.55;;
14171;SDS011;7165;52.388;4.928;2022-09-21T12:35:35;2.38;;;1.35;;
14171;SDS011;7165;52.388;4.928;2022-09-21T12:38:07;1.65;;;1.23;;
14171;SDS011;7165;52.388;4.928;2022-09-21T12:40:39;4.43;;;1.42;;
14171;SDS011;7165;52.388;4.928;2022-09-21T12:43:15;2.60;;;0.95;;
14171;SDS011;7165;52.388;4.928;2022-09-21T12:45:52;3.50;;;1.98;;
14171;SDS011;7165;52.388;4.928;2022-09-21T12:48:25;2.08;;;1.38;;
14171;SDS011;7165;52.388;4.928;2022-09-21T12:50:56;2.40;;;1.05;;
14171;SDS011;7165;52.388;4.928;2022-09-21T12:53:29;1.35;;;1.20;;
14171;SDS011;7165;52.388;4.928;2022-09-21T12:56:00;4.22;;;3.35;;
14171;SDS011;7165;52.388;4.928;2022-09-21T12:58:33;3.20;;;2.10;;
14171;SDS011;7165;52.388;4.928;2022-09-21T13:01:13;2.28;;;1.38;;
14171;SDS011;7165;52.388;4.928;2022-09-21T13:03:54;1.92;;;1.05;;
14171;SDS011;7165;52.388;4.928;2022-09-21T13:06:34;2.05;;;1.15;;
14171;SDS011;7165;52.388;4.928;2022-09-21T13:09:12;2.80;;;0.95;;
14171;SDS011;7165;52.388;4.928;2022-09-21T13:11:49;1.73;;;1.08;;
14171;SDS011;7165;52.388;4.928;2022-09-21T13:14:20;1.20;;;1.10;;
14171;SDS011;7165;52.388;4.928;2022-09-21T13:16:52;3.88;;;1.17;;
14171;SDS011;7165;52.388;4.928;2022-09-21T13:19:24;2.30;;;1.00;;
14171;SDS011;7165;52.388;4.928;2022-09-21T13:22:08;2.60;;;2.00;;
14171;SDS011;7165;52.388;4.928;2022-09-21T13:24:38;2.35;;;1.20;;
14171;SDS011;7165;52.388;4.928;2022-09-21T13:27:07;1.88;;;1.02;;
14171;SDS011;7165;52.388;4.928;2022-09-21T13:29:35;2.47;;;1.33;;
14171;SDS011;7165;52.388;4.928;2022-09-21T13:32:19;4.80;;;1.45;;
14171;SDS011;7165;52.388;4.928;2022-09-21T13:34:49;1.88;;;1.20;;
14171;SDS011;7165;52.388;4.928;2022-09-21T13:37:26;3.20;;;1.88;;
14171;SDS011;7165;52.388;4.928;2022-09-21T13:43:14;2.70;;;1.20;;
14171;SDS011;7165;52.388;4.928;2022-09-21T13:45:53;2.42;;;1.48;;
14171;SDS011;7165;52.388;4.928;2022-09-21T13:48:22;3.20;;;1.10;;
14171;SDS011;7165;52.388;4.928;2022-09-21T13:50:59;3.00;;;1.30;;
14171;SDS011;7165;52.388;4.928;2022-09-21T13:53:33;1.20;;;1.10;;
14171;SDS011;7165;52.388;4.928;2022-09-21T13:56:05;3.25;;;1.00;;
14171;SDS011;7165;52.388;4.928;2022-09-21T13:58:35;2.85;;;1.02;;
14171;SDS011;7165;52.388;4.928;2022-09-21T14:01:11;1.42;;;1.10;;
14171;SDS011;7165;52.388;4.928;2022-09-21T14:03:42;1.70;;;0.95;;
14171;SDS011;7165;52.388;4.928;2022-09-21T14:06:13;1.40;;;1.10;;
14171;SDS011;7165;52.388;4.928;2022-09-21T14:08:45;2.53;;;1.20;;
14171;SDS011;7165;52.388;4.928;2022-09-21T14:11:15;2.35;;;1.35;;
14171;SDS011;7165;52.388;4.928;2022-09-21T14:13:46;1.30;;;1.10;;
14171;SDS011;7165;52.388;4.928;2022-09-21T14:25:46;2.45;;;1.27;;
14171;SDS011;7165;52.388;4.928;2022-09-21T14:28:18;2.15;;;1.58;;
14171;SDS011;7165;52.388;4.928;2022-09-21T14:30:54;1.67;;;1.20;;
14171;SDS011;7165;52.388;4.928;2022-09-21T14:33:27;2.17;;;1.00;;
14171;SDS011;7165;52.388;4.928;2022-09-21T14:35:57;1.52;;;1.27;;
14171;SDS011;7165;52.388;4.928;2022-09-21T14:38:30;8.43;;;5.20;;
14171;SDS011;7165;52.388;4.928;2022-09-21T14:41:05;3.05;;;1.35;;
14171;SDS011;7165;52.388;4.928;2022-09-21T14:43:33;1.52;;;1.02;;
14171;SDS011;7165;52.388;4.928;2022-09-21T14:46:06;2.58;;;1.42;;
14171;SDS011;7165;52.388;4.928;2022-09-21T14:48:44;6.45;;;1.50;;
14171;SDS011;7165;52.388;4.928;2022-09-21T14:51:20;3.65;;;1.35;;
14171;SDS011;7165;52.388;4.928;2022-09-21T14:56:48;2.90;;;1.15;;
14171;SDS011;7165;52.388;4.928;2022-09-21T14:59:28;3.28;;;1.23;;
14171;SDS011;7165;52.388;4.928;2022-09-21T15:02:12;2.75;;;1.55;;
14171;SDS011;7165;52.388;4.928;2022-09-21T15:04:56;2.58;;;1.45;;
14171;SDS011;7165;52.388;4.928;2022-09-21T15:07:40;4.10;;;1.63;;
14171;SDS011;7165;52.388;4.928;2022-09-21T15:10:31;1.90;;;1.27;;
14171;SDS011;7165;52.388;4.928;2022-09-21T15:13:26;2.22;;;1.55;;
14171;SDS011;7165;52.388;4.928;2022-09-21T15:16:20;2.80;;;2.05;;
14171;SDS011;7165;52.388;4.928;2022-09-21T15:18:59;6.28;;;2.15;;
14171;SDS011;7165;52.388;4.928;2022-09-21T15:21:38;2.65;;;1.20;;
14171;SDS011;7165;52.388;4.928;2022-09-21T15:24:09;3.30;;;1.55;;
14171;SDS011;7165;52.388;4.928;2022-09-21T15:26:45;1.63;;;1.52;;
14171;SDS011;7165;52.388;4.928;2022-09-21T15:29:17;2.45;;;1.42;;
14171;SDS011;7165;52.388;4.928;2022-09-21T15:31:49;2.15;;;1.58;;
14171;SDS011;7165;52.388;4.928;2022-09-21T15:34:16;2.88;;;1.85;;
14171;SDS011;7165;52.388;4.928;2022-09-21T15:36:43;5.07;;;1.58;;
14171;SDS011;7165;52.388;4.928;2022-09-21T15:39:25;3.13;;;1.10;;
14171;SDS011;7165;52.388;4.928;2022-09-21T15:41:59;2.10;;;1.27;;
14171;SDS011;7165;52.388;4.928;2022-09-21T15:44:41;4.28;;;1.50;;
14171;SDS011;7165;52.388;4.928;2022-09-21T15:47:12;3.53;;;1.30;;
14171;SDS011;7165;52.388;4.928;2022-09-21T15:49:40;2.90;;;1.33;;
14171;SDS011;7165;52.388;4.928;2022-09-21T15:52:10;1.88;;;1.13;;
14171;SDS011;7165;52.388;4.928;2022-09-21T15:54:39;6.45;;;3.30;;
14171;SDS011;7165;52.388;4.928;2022-09-21T15:57:23;2.50;;;1.55;;
14171;SDS011;7165;52.388;4.928;2022-09-21T15:59:55;2.88;;;1.20;;
14171;SDS011;7165;52.388;4.928;2022-09-21T16:02:22;4.57;;;1.40;;